Time;durP1;ratioP1;P1;durP2;ratioP2;P2;SDS_P1;SDS_P2;PMS_P1;PMS_P2;Temp;Humidity;BMP_temperature;BMP_pressure;BME280_temperature;BME280_humidity;BME280_pressure;Samples;Min_cycle;Max_cycle;Signal;HPM_P1;HPM_P2
2021/09/21 00:43:05;;;;;;;0.68;0.60;;;;;;;0.61;70.55;99533.31;4730578;30;20087;-64
2021/09/21 00:45:32;;;;;;;0.40;0.40;;;;;;;0.62;70.70;99537.72;4798016;29;20047;-65
2021/09/21 00:47:58;;;;;;;2.88;0.60;;;;;;;0.62;70.60;99532.31;4913334;29;20440;-65
2021/09/21 00:50:26;;;;;;;0.45;0.45;;;;;;;0.63;70.75;99525.06;5064321;28;20085;-66
2021/09/21 00:52:55;;;;;;;0.20;0.20;;;;;;;0.63;70.63;99523.22;5088386;28;20139;-64
2021/09/21 00:55:21;;;;;;;0.20;0.20;;;;;;;0.61;70.80;99530.63;5087822;28;20096;-65
2021/09/21 00:57:47;;;;;;;3.78;1.05;;;;;;;0.57;70.77;99523.81;5087728;28;20530;-67
2021/09/21 01:00:15;;;;;;;0.38;0.38;;;;;;;0.55;71.10;99523.13;5088314;28;20054;-63
2021/09/21 01:02:42;;;;;;;0.30;0.30;;;;;;;0.55;70.92;99525.84;5089044;28;20058;-62
2021/09/21 01:58:47;;;;;;;0.47;0.47;;;;;;;0.66;70.33;99493.19;4978350;28;20034;-64
2021/09/21 02:01:15;;;;;;;0.40;0.40;;;;;;;0.73;70.27;99500.66;5087786;28;20039;-64
2021/09/21 02:03:42;;;;;;;2.00;0.68;;;;;;;0.75;70.35;99510.34;5109280;28;20031;-64
2021/09/21 02:06:09;;;;;;;0.40;0.40;;;;;;;0.78;70.11;99498.34;5125008;28;20035;-67
2021/09/21 02:08:35;;;;;;;0.47;0.47;;;;;;;0.79;70.25;99505.44;5116908;28;20027;-65
2021/09/21 02:11:01;;;;;;;0.65;0.65;;;;;;;0.79;70.18;99505.44;5128438;27;20035;-64
2021/09/21 02:13:27;;;;;;;0.50;0.50;;;;;;;0.81;70.16;99500.72;5128456;27;20036;-70
2021/09/21 02:15:52;;;;;;;0.52;0.52;;;;;;;0.83;70.29;99501.44;5128643;27;20113;-67
2021/09/21 02:18:18;;;;;;;1.73;0.95;;;;;;;0.85;70.05;99499.41;5128405;27;20475;-63
2021/09/21 02:20:44;;;;;;;0.32;0.32;;;;;;;0.90;70.26;99507.06;5128351;28;20027;-65
2021/09/21 02:23:10;;;;;;;0.30;0.30;;;;;;;0.95;70.16;99502.06;5128460;28;20481;-64
2021/09/21 02:25:36;;;;;;;0.50;0.50;;;;;;;0.99;70.25;99506.97;5128232;27;20030;-65
2021/09/21 02:28:02;;;;;;;0.40;0.40;;;;;;;1.07;69.87;99508.06;5126923;28;20031;-64
2021/09/21 02:30:27;;;;;;;0.30;0.30;;;;;;;1.09;69.71;99509.63;5128263;28;20041;-63
2021/09/21 02:32:53;;;;;;;0.25;0.25;;;;;;;1.12;69.71;99506.59;5128184;28;20394;-63
2021/09/21 02:35:19;;;;;;;2.65;0.95;;;;;;;1.18;69.83;99505.97;5127683;28;20054;-63
2021/09/21 02:37:46;;;;;;;0.30;0.30;;;;;;;1.28;69.46;99507.72;5127553;28;20043;-65
2021/09/21 02:40:12;;;;;;;0.20;0.20;;;;;;;1.35;69.22;99495.25;5128221;27;20781;-64
2021/09/21 02:42:39;;;;;;;0.40;0.40;;;;;;;1.43;69.36;99497.16;5127974;27;20164;-63
2021/09/21 02:45:05;;;;;;;0.35;0.35;;;;;;;1.48;69.26;99495.66;5125290;28;20027;-63
2021/09/21 02:47:31;;;;;;;0.45;0.45;;;;;;;1.59;69.11;99497.28;5127955;27;20114;-64
2021/09/21 02:49:56;;;;;;;0.20;0.20;;;;;;;1.69;68.99;99492.59;5117802;28;20115;-63
2021/09/21 02:52:22;;;;;;;0.20;0.20;;;;;;;2.13;68.19;99494.31;5113950;28;20054;-64
2021/09/21 02:54:48;;;;;;;0.30;0.30;;;;;;;4.23;63.95;99492.03;5113922;28;20085;-64
2021/09/21 02:57:14;;;;;;;0.30;0.30;;;;;;;6.92;58.29;99483.22;5114084;28;20374;-64
2021/09/21 02:59:39;;;;;;;0.20;0.20;;;;;;;9.26;53.88;99478.13;5113565;28;20055;-65
2021/09/21 03:02:05;;;;;;;0.30;0.30;;;;;;;11.04;51.45;99476.16;5113840;28;20027;-68
2021/09/21 03:04:35;;;;;;;0.20;0.20;;;;;;;12.48;49.53;99471.66;5113960;28;20103;-63
2021/09/21 03:07:05;;;;;;;0.40;0.40;;;;;;;13.58;48.88;99470.47;5113818;28;20482;-63
2021/09/21 03:12:02;;;;;;;0.20;0.20;;;;;;;15.36;47.97;99462.56;5113848;28;20065;-63
2021/09/21 03:17:26;;;;;;;0.20;0.20;;;;;;;17.15;46.85;99460.59;5111923;28;20605;-64
2021/09/21 03:19:52;;;;;;;0.25;0.25;;;;;;;18.40;45.66;99457.63;5111946;28;20058;-64
2021/09/21 03:22:19;;;;;;;0.20;0.20;;;;;;;19.21;45.22;99456.25;5113703;28;20027;-64
2021/09/21 03:24:45;;;;;;;0.20;0.20;;;;;;;19.77;45.20;99460.16;5110758;28;20055;-64
2021/09/21 03:27:10;;;;;;;0.30;0.30;;;;;;;20.28;45.11;99468.44;5113308;27;20474;-65
2021/09/21 03:29:36;;;;;;;0.20;0.20;;;;;;;20.73;45.17;99471.41;5112757;28;20031;-65
2021/09/21 03:32:02;;;;;;;0.20;0.20;;;;;;;21.42;44.88;99462.31;5113436;28;20027;-63
2021/09/21 03:34:28;;;;;;;0.10;0.10;;;;;;;22.09;43.94;99458.97;5113138;28;20430;-64
2021/09/21 03:36:54;;;;;;;0.20;0.20;;;;;;;22.67;43.65;99447.69;5112956;28;20051;-64
2021/09/21 03:39:20;;;;;;;0.20;0.20;;;;;;;23.05;43.26;99444.06;5113132;28;20094;-64
2021/09/21 03:41:46;;;;;;;0.40;0.40;;;;;;;22.32;44.71;99452.59;5110170;28;20059;-65
2021/09/21 03:44:11;;;;;;;0.30;0.30;;;;;;;19.72;49.42;99454.59;5112966;28;20035;-65
2021/09/21 03:46:37;;;;;;;0.20;0.20;;;;;;;16.80;55.16;99452.72;5113031;28;20389;-64
2021/09/21 03:49:03;;;;;;;0.30;0.30;;;;;;;14.43;59.73;99450.81;5112847;28;20028;-63
2021/09/21 03:51:29;;;;;;;0.30;0.30;;;;;;;12.59;63.41;99457.94;5113072;27;20110;-63
2021/09/21 03:53:54;;;;;;;0.25;0.25;;;;;;;11.12;65.88;99455.81;5111932;28;20059;-64
2021/09/21 03:56:21;;;;;;;0.20;0.20;;;;;;;10.02;67.32;99452.09;5112903;28;20028;-64
2021/09/21 03:58:46;;;;;;;1.45;0.68;;;;;;;9.20;68.40;99451.56;5109755;28;20135;-65
2021/09/21 04:01:12;;;;;;;0.55;0.55;;;;;;;8.52;68.63;99456.09;5111808;28;20043;-64
2021/09/21 04:03:38;;;;;;;0.47;0.47;;;;;;;7.95;68.69;99452.69;5112625;28;20035;-63
2021/09/21 04:06:03;;;;;;;0.98;0.70;;;;;;;7.52;68.84;99461.00;5113718;28;20038;-64
2021/09/21 04:08:29;;;;;;;0.40;0.40;;;;;;;7.19;68.59;99461.59;5114036;28;20424;-64
2021/09/21 04:10:55;;;;;;;0.52;0.52;;;;;;;6.89;68.20;99461.75;5114061;28;20111;-64
2021/09/21 04:13:20;;;;;;;0.60;0.60;;;;;;;6.70;67.88;99456.91;5110080;28;20835;-64
2021/09/21 04:15:46;;;;;;;0.57;0.57;;;;;;;6.54;67.36;99458.88;5112608;28;20032;-67
2021/09/21 04:18:12;;;;;;;0.63;0.60;;;;;;;6.42;66.88;99465.84;5113180;28;20035;-65
2021/09/21 04:20:37;;;;;;;0.30;0.30;;;;;;;6.34;66.42;99463.25;5113232;28;20040;-64
2021/09/21 04:23:03;;;;;;;0.85;0.38;;;;;;;6.25;66.03;99455.16;5112759;28;20616;-65
2021/09/21 04:25:30;;;;;;;0.28;0.28;;;;;;;6.19;65.42;99449.66;5112651;28;20031;-64
2021/09/21 04:27:57;;;;;;;0.70;0.70;;;;;;;6.09;65.21;99444.47;5112510;28;20062;-64
2021/09/21 04:30:23;;;;;;;0.30;0.30;;;;;;;6.00;65.25;99440.16;5112720;28;20023;-64
2021/09/21 04:32:50;;;;;;;1.80;0.52;;;;;;;5.95;64.82;99430.63;5112840;28;20387;-64
2021/09/21 04:35:16;;;;;;;0.50;0.50;;;;;;;5.92;64.60;99427.47;5113015;28;20035;-64
2021/09/21 04:37:42;;;;;;;4.00;0.85;;;;;;;5.93;64.26;99429.13;5113297;28;20066;-65
2021/09/21 04:40:09;;;;;;;0.20;0.20;;;;;;;5.92;64.02;99422.84;5113404;28;20035;-64
2021/09/21 04:42:35;;;;;;;0.30;0.30;;;;;;;5.92;63.96;99433.75;5112825;28;20118;-64
2021/09/21 04:45:01;;;;;;;4.10;1.27;;;;;;;5.89;63.59;99433.25;5113270;28;20058;-64
2021/09/21 04:47:26;;;;;;;0.20;0.20;;;;;;;5.83;63.54;99436.75;5113659;28;20046;-64
2021/09/21 04:49:52;;;;;;;0.20;0.20;;;;;;;5.84;63.40;99430.28;5113393;28;20114;-65
2021/09/21 04:52:18;;;;;;;0.85;0.60;;;;;;;5.82;63.18;99433.19;5113357;28;20027;-65
2021/09/21 04:54:44;;;;;;;0.20;0.20;;;;;;;5.85;62.99;99435.53;5113204;28;20031;-64
2021/09/21 04:57:10;;;;;;;0.30;0.30;;;;;;;5.86;62.87;99426.34;5113107;28;20027;-65
2021/09/21 04:59:36;;;;;;;0.20;0.20;;;;;;;5.90;62.74;99427.66;5112724;28;20524;-65
2021/09/21 05:02:02;;;;;;;0.40;0.40;;;;;;;5.90;62.46;99430.38;5113609;28;20047;-65
2021/09/21 05:04:27;;;;;;;0.95;0.80;;;;;;;5.95;62.40;99438.81;5113053;28;20106;-65
2021/09/21 05:06:53;;;;;;;0.75;0.68;;;;;;;6.01;62.13;99430.94;5113103;28;20122;-65
2021/09/21 05:09:19;;;;;;;0.88;0.88;;;;;;;6.03;62.06;99437.91;5113484;28;20069;-64
2021/09/21 05:11:45;;;;;;;1.08;0.55;;;;;;;6.06;61.93;99431.22;5112679;28;20077;-65
2021/09/21 05:14:13;;;;;;;0.65;0.65;;;;;;;6.06;61.91;99425.78;5112904;28;20015;-65
2021/09/21 05:16:39;;;;;;;0.55;0.50;;;;;;;6.09;61.66;99428.13;5113483;28;20035;-65
2021/09/21 05:19:07;;;;;;;0.30;0.30;;;;;;;6.14;61.61;99418.34;5112916;28;20036;-65
2021/09/21 05:21:34;;;;;;;1.85;1.05;;;;;;;6.19;61.54;99417.75;5112694;28;20035;-64
2021/09/21 05:24:00;;;;;;;0.25;0.25;;;;;;;6.26;61.20;99418.69;5112825;28;20028;-64
2021/09/21 05:26:25;;;;;;;1.45;0.82;;;;;;;6.34;61.16;99423.16;5113091;28;20029;-66
2021/09/21 05:28:51;;;;;;;1.08;0.98;;;;;;;6.38;61.06;99408.13;5112120;28;20134;-64
2021/09/21 05:31:17;;;;;;;3.22;0.82;;;;;;;6.45;61.01;99413.66;5113065;28;20410;-65
2021/09/21 05:33:43;;;;;;;3.25;1.15;;;;;;;6.47;60.99;99412.41;5112861;28;20039;-66
2021/09/21 05:36:09;;;;;;;1.05;0.95;;;;;;;6.55;60.84;99414.19;5112929;28;20489;-64
2021/09/21 05:38:34;;;;;;;0.50;0.50;;;;;;;6.54;60.87;99406.19;5112594;28;20578;-66
2021/09/21 05:41:00;;;;;;;0.75;0.75;;;;;;;6.52;61.07;99406.34;5112644;28;20568;-65
2021/09/21 05:43:26;;;;;;;0.30;0.30;;;;;;;6.61;60.87;99404.34;5112928;28;20091;-64
2021/09/21 05:45:51;;;;;;;0.32;0.32;;;;;;;6.66;60.71;99397.28;5112601;28;20031;-64
2021/09/21 05:48:17;;;;;;;0.32;0.32;;;;;;;6.73;60.65;99397.34;5112661;28;20056;-65
2021/09/21 05:50:43;;;;;;;0.30;0.30;;;;;;;6.77;60.35;99403.25;5112839;28;20032;-66
2021/09/21 05:53:09;;;;;;;0.82;0.82;;;;;;;6.80;60.34;99398.25;5112273;28;20043;-64
2021/09/21 05:55:35;;;;;;;0.40;0.40;;;;;;;6.87;60.38;99398.31;5112381;28;20031;-63
2021/09/21 05:58:00;;;;;;;0.30;0.30;;;;;;;6.94;60.09;99396.47;5111912;28;20497;-63
2021/09/21 06:00:26;;;;;;;0.30;0.30;;;;;;;7.03;60.03;99393.63;5112657;28;20032;-63
2021/09/21 06:02:52;;;;;;;0.20;0.20;;;;;;;7.11;59.75;99385.25;5112616;28;20066;-63
2021/09/21 06:05:18;;;;;;;1.65;0.90;;;;;;;7.15;59.82;99383.81;5112575;28;20375;-65
2021/09/21 06:07:51;;;;;;;0.20;0.20;;;;;;;7.18;59.54;99372.50;5112269;28;20097;-63
2021/09/21 06:10:19;;;;;;;0.55;0.40;;;;;;;7.22;59.64;99365.59;5112461;28;20509;-64
2021/09/21 06:12:45;;;;;;;1.13;0.80;;;;;;;7.28;59.56;99366.69;5112785;28;20529;-64
2021/09/21 06:15:14;;;;;;;0.30;0.30;;;;;;;7.35;59.46;99364.84;5112408;28;20406;-63
2021/09/21 06:17:39;;;;;;;0.40;0.40;;;;;;;7.39;59.04;99366.16;5112698;28;20104;-64
2021/09/21 06:20:06;;;;;;;0.70;0.38;;;;;;;7.46;59.17;99363.44;5112656;28;20494;-63
2021/09/21 06:22:32;;;;;;;0.20;0.20;;;;;;;7.50;59.00;99348.34;5112267;28;20055;-64
2021/09/21 06:24:58;;;;;;;0.32;0.32;;;;;;;7.57;58.89;99353.81;5114302;28;20069;-64
2021/09/21 06:27:23;;;;;;;0.32;0.32;;;;;;;7.62;58.76;99345.88;5114958;28;20044;-63
2021/09/21 06:29:49;;;;;;;0.20;0.20;;;;;;;7.68;58.60;99348.63;5116012;28;20027;-64
2021/09/21 06:32:15;;;;;;;0.75;0.63;;;;;;;7.76;58.67;99341.31;5116267;28;20040;-65
2021/09/21 06:34:40;;;;;;;0.30;0.30;;;;;;;7.83;58.66;99339.44;5115839;28;20039;-65
2021/09/21 06:37:06;;;;;;;0.25;0.25;;;;;;;7.89;58.56;99333.16;5115813;28;20020;-65
2021/09/21 06:39:32;;;;;;;0.68;0.65;;;;;;;7.98;58.32;99337.41;5113036;28;20043;-66
2021/09/21 06:41:57;;;;;;;0.35;0.35;;;;;;;8.06;58.24;99326.28;5115459;28;20027;-63
2021/09/21 06:44:23;;;;;;;1.73;0.65;;;;;;;8.16;57.98;99325.06;5115174;28;20076;-65
2021/09/21 06:46:49;;;;;;;3.10;0.85;;;;;;;8.23;57.92;99315.81;5115859;28;20036;-64
2021/09/21 06:49:15;;;;;;;0.50;0.50;;;;;;;8.33;57.74;99315.41;5115657;28;20040;-65
2021/09/21 06:51:40;;;;;;;0.30;0.30;;;;;;;8.42;57.52;99316.03;5115058;28;20379;-65
2021/09/21 06:54:06;;;;;;;0.82;0.82;;;;;;;8.52;57.49;99310.19;5114759;28;20035;-64
2021/09/21 06:56:32;;;;;;;5.00;0.50;;;;;;;8.59;57.24;99305.56;5113187;28;20069;-65
2021/09/21 06:58:57;;;;;;;2.38;0.60;;;;;;;8.68;57.17;99301.56;5114869;28;20043;-64
2021/09/21 07:01:26;;;;;;;0.98;0.60;;;;;;;8.72;57.25;99293.78;5115421;28;20046;-64
2021/09/21 07:03:52;;;;;;;0.38;0.38;;;;;;;8.79;56.93;99294.63;5115215;28;20039;-64
2021/09/21 07:06:17;;;;;;;0.60;0.60;;;;;;;8.86;56.69;99289.13;5115356;28;20061;-65
2021/09/21 07:08:43;;;;;;;0.65;0.50;;;;;;;8.90;56.84;99287.66;5113978;28;20035;-63
2021/09/21 07:11:09;;;;;;;0.63;0.60;;;;;;;8.96;56.58;99286.81;5115336;28;20084;-63
2021/09/21 07:13:34;;;;;;;0.85;0.60;;;;;;;9.02;56.52;99279.63;5115392;28;20046;-64
2021/09/21 07:16:00;;;;;;;0.25;0.25;;;;;;;9.06;56.31;99275.41;5115372;28;20039;-63
2021/09/21 07:18:26;;;;;;;0.30;0.30;;;;;;;9.11;56.40;99270.13;5115444;28;20043;-65
2021/09/21 07:20:52;;;;;;;0.30;0.30;;;;;;;9.11;56.46;99279.22;5115037;28;20472;-66
2021/09/21 07:23:17;;;;;;;0.20;0.20;;;;;;;9.08;56.30;99267.81;5115035;28;20035;-65
2021/09/21 07:25:43;;;;;;;0.50;0.50;;;;;;;9.05;56.45;99271.81;5115233;28;20115;-64
2021/09/21 07:28:09;;;;;;;0.38;0.38;;;;;;;9.05;56.47;99273.72;5114844;28;20054;-64
2021/09/21 07:30:35;;;;;;;0.28;0.28;;;;;;;9.03;56.44;99271.19;5114780;28;20076;-63
2021/09/21 07:33:01;;;;;;;0.30;0.30;;;;;;;9.03;56.36;99257.50;5115079;28;20514;-65
2021/09/21 07:35:27;;;;;;;0.50;0.50;;;;;;;9.07;56.27;99261.50;5114807;28;20404;-64
2021/09/21 07:37:53;;;;;;;0.20;0.20;;;;;;;9.09;55.99;99253.06;5113266;28;20059;-65
2021/09/21 07:40:20;;;;;;;0.20;0.20;;;;;;;9.16;55.87;99247.56;5114955;28;20467;-65
2021/09/21 07:42:48;;;;;;;0.40;0.40;;;;;;;9.23;55.86;99245.66;5114921;28;20528;-65
2021/09/21 07:45:15;;;;;;;1.10;0.45;;;;;;;9.29;55.40;99237.41;5114840;28;20494;-64
2021/09/21 07:47:41;;;;;;;0.73;0.73;;;;;;;9.36;55.44;99242.84;5114482;28;20062;-63
2021/09/21 07:50:08;;;;;;;0.20;0.20;;;;;;;9.42;55.32;99242.00;5114616;27;20036;-66
2021/09/21 07:52:34;;;;;;;0.20;0.20;;;;;;;9.45;55.10;99244.31;5114420;28;20036;-64
2021/09/21 07:55:00;;;;;;;0.20;0.20;;;;;;;9.47;55.08;99239.44;5114619;28;20028;-64
2021/09/21 07:57:27;;;;;;;0.20;0.20;;;;;;;9.50;55.17;99227.22;5114601;28;20046;-68
2021/09/21 07:59:53;;;;;;;0.20;0.20;;;;;;;9.53;54.90;99236.91;5113952;28;20031;-65
2021/09/21 08:02:19;;;;;;;0.20;0.20;;;;;;;9.54;54.64;99233.94;5114449;28;20028;-64
2021/09/21 08:04:45;;;;;;;0.60;0.60;;;;;;;9.55;54.96;99230.13;5114446;28;20047;-67
2021/09/21 08:07:11;;;;;;;0.20;0.20;;;;;;;9.57;54.70;99232.66;5114328;28;21230;-65
2021/09/21 08:09:37;;;;;;;0.38;0.38;;;;;;;9.58;54.85;99223.38;5113121;28;20387;-65
2021/09/21 08:12:04;;;;;;;0.20;0.20;;;;;;;9.58;54.65;99218.72;5114450;28;20035;-66
2021/09/21 08:14:36;;;;;;;1.13;0.90;;;;;;;9.62;54.59;99221.88;5114252;28;20054;-64
2021/09/21 08:17:04;;;;;;;0.20;0.20;;;;;;;9.64;54.53;99208.78;5114046;28;20023;-65
2021/09/21 08:19:30;;;;;;;0.63;0.28;;;;;;;9.67;54.23;99215.75;5114239;28;20044;-64
2021/09/21 08:21:56;;;;;;;0.40;0.40;;;;;;;9.69;54.31;99214.47;5114179;28;20035;-65
2021/09/21 08:24:21;;;;;;;0.32;0.32;;;;;;;9.70;53.92;99207.94;5113926;28;20042;-65
2021/09/21 08:26:47;;;;;;;0.20;0.20;;;;;;;9.69;54.10;99208.13;5112722;28;20508;-65
2021/09/21 08:29:13;;;;;;;0.40;0.40;;;;;;;9.68;54.05;99204.56;5113266;28;20040;-65
2021/09/21 08:31:40;;;;;;;0.35;0.35;;;;;;;9.72;54.19;99200.31;5113834;28;20626;-64
2021/09/21 08:34:06;;;;;;;0.20;0.20;;;;;;;9.76;53.94;99197.97;5113663;28;20057;-64
2021/09/21 08:36:36;;;;;;;0.82;0.50;;;;;;;9.83;53.76;99196.03;5113678;28;20040;-63
2021/09/21 08:39:02;;;;;;;0.20;0.20;;;;;;;9.90;53.55;99188.59;5112670;28;20449;-64
2021/09/21 08:41:29;;;;;;;0.30;0.30;;;;;;;9.96;53.66;99186.88;5113901;28;20031;-64
2021/09/21 08:43:58;;;;;;;0.20;0.20;;;;;;;9.96;53.57;99187.72;5113465;28;20058;-65
2021/09/21 08:46:25;;;;;;;0.57;0.57;;;;;;;9.99;53.21;99189.19;5113490;28;20036;-64
2021/09/21 08:48:51;;;;;;;0.20;0.20;;;;;;;10.02;53.38;99175.00;5113010;28;20440;-65
2021/09/21 08:51:17;;;;;;;0.85;0.30;;;;;;;10.05;53.02;99179.22;5113401;28;20104;-63
2021/09/21 08:53:43;;;;;;;0.82;0.82;;;;;;;10.08;53.16;99184.25;5113291;28;20028;-64
2021/09/21 08:56:09;;;;;;;0.10;0.10;;;;;;;10.15;53.00;99174.91;5112963;28;20032;-63
2021/09/21 08:58:35;;;;;;;1.08;0.45;;;;;;;10.17;52.68;99170.06;5112484;28;20131;-64
2021/09/21 09:01:15;;;;;;;0.75;0.75;;;;;;;10.21;52.80;99167.69;5112998;28;20489;-65
2021/09/21 09:03:54;;;;;;;0.30;0.30;;;;;;;10.21;52.47;99161.38;5113193;28;20502;-64
2021/09/21 09:06:20;;;;;;;0.40;0.40;;;;;;;10.21;52.60;99173.19;5113209;28;20509;-63
2021/09/21 09:08:46;;;;;;;0.28;0.28;;;;;;;10.23;52.44;99164.72;5113188;28;20137;-65
2021/09/21 09:11:19;;;;;;;0.17;0.17;;;;;;;10.20;52.47;99160.50;5112554;28;20063;-64
2021/09/21 09:13:51;;;;;;;0.52;0.30;;;;;;;10.16;52.89;99160.13;5113257;28;20031;-64
2021/09/21 09:16:18;;;;;;;0.20;0.20;;;;;;;10.16;52.49;99151.91;5112844;28;20032;-65
2021/09/21 09:18:47;;;;;;;0.20;0.20;;;;;;;10.15;52.55;99158.44;5113024;28;20028;-66
2021/09/21 09:21:17;;;;;;;0.30;0.30;;;;;;;10.17;52.33;99167.31;5113160;28;20555;-65
2021/09/21 09:23:51;;;;;;;0.10;0.10;;;;;;;10.20;52.15;99156.94;5112688;28;20028;-65
2021/09/21 09:26:23;;;;;;;0.20;0.20;;;;;;;10.21;52.25;99144.91;5112939;28;20118;-66
2021/09/21 09:28:50;;;;;;;0.20;0.20;;;;;;;10.21;52.13;99139.41;5112149;28;20031;-65
2021/09/21 09:31:28;;;;;;;1.20;0.30;;;;;;;10.24;52.06;99141.72;5112872;28;20032;-66
2021/09/21 09:34:25;;;;;;;0.20;0.20;;;;;;;10.30;52.17;99149.03;5112894;28;20031;-66
2021/09/21 09:36:58;;;;;;;0.20;0.20;;;;;;;10.34;51.79;99142.06;5112668;28;20044;-64
2021/09/21 09:39:28;;;;;;;0.35;0.35;;;;;;;10.34;51.91;99142.06;5112839;28;20068;-65
2021/09/21 09:41:56;;;;;;;0.50;0.50;;;;;;;10.33;51.93;99148.59;5112430;28;20043;-65
2021/09/21 09:44:25;;;;;;;0.10;0.10;;;;;;;10.33;51.96;99137.59;5112619;28;20032;-66
2021/09/21 09:47:00;;;;;;;0.10;0.10;;;;;;;10.35;51.91;99132.78;5112664;28;20024;-64
2021/09/21 09:49:29;;;;;;;0.20;0.20;;;;;;;10.38;51.89;99128.72;5099108;28;20127;-65
2021/09/21 09:52:02;;;;;;;0.28;0.28;;;;;;;10.42;51.49;99135.44;5099235;28;20436;-65
2021/09/21 09:54:27;;;;;;;0.20;0.20;;;;;;;10.42;51.56;99124.47;5111195;28;20044;-64
2021/09/21 09:56:54;;;;;;;0.20;0.20;;;;;;;10.47;51.51;99116.41;5111148;28;20435;-65
2021/09/21 09:59:21;;;;;;;0.40;0.40;;;;;;;10.47;51.41;99114.50;5104529;28;20397;-65
2021/09/21 10:01:47;;;;;;;0.20;0.20;;;;;;;10.49;51.25;99109.59;5112854;28;20443;-66
2021/09/21 10:04:13;;;;;;;1.77;0.75;;;;;;;10.51;51.31;99109.38;5112870;28;20024;-64
2021/09/21 10:06:40;;;;;;;0.20;0.20;;;;;;;10.49;51.09;99108.78;5113170;28;20106;-65
2021/09/21 10:09:06;;;;;;;0.20;0.20;;;;;;;10.48;51.47;99113.44;5112354;28;20033;-66
2021/09/21 10:11:32;;;;;;;0.50;0.50;;;;;;;10.49;51.14;99109.59;5112725;28;20020;-66
2021/09/21 10:14:01;;;;;;;0.10;0.10;;;;;;;10.50;50.87;99103.06;5111544;28;20020;-64
2021/09/21 10:16:26;;;;;;;0.68;0.68;;;;;;;10.55;51.06;99112.53;5112680;28;20020;-65
2021/09/21 10:18:58;;;;;;;0.40;0.40;;;;;;;10.57;50.95;99111.22;5112685;27;20401;-65
2021/09/21 10:21:36;;;;;;;0.15;0.15;;;;;;;10.58;50.71;99110.16;5112089;28;20032;-66
2021/09/21 10:24:06;;;;;;;0.20;0.20;;;;;;;10.56;50.79;99109.53;5112554;28;20019;-66
2021/09/21 10:26:38;;;;;;;0.20;0.20;;;;;;;10.58;50.90;99107.41;5110940;28;20110;-65
2021/09/21 10:29:04;;;;;;;0.22;0.22;;;;;;;10.61;50.80;99109.69;5110779;28;20024;-66
2021/09/21 10:31:30;;;;;;;0.20;0.20;;;;;;;10.63;50.82;99110.31;5111132;28;20024;-65
2021/09/21 10:33:56;;;;;;;0.30;0.30;;;;;;;10.64;50.71;99097.41;5111946;28;20030;-65
2021/09/21 10:36:29;;;;;;;0.20;0.20;;;;;;;10.66;50.74;99098.88;5112379;28;20034;-63
2021/09/21 10:38:57;;;;;;;0.38;0.30;;;;;;;10.69;50.46;99097.59;5110231;28;20421;-66
2021/09/21 10:41:23;;;;;;;0.20;0.20;;;;;;;10.72;50.74;99101.75;5112324;28;20032;-65
2021/09/21 10:44:05;;;;;;;0.63;0.63;;;;;;;10.74;50.52;99088.66;5111871;28;20023;-66
2021/09/21 10:46:46;;;;;;;0.20;0.20;;;;;;;10.76;50.38;99083.75;5111785;28;20036;-64
2021/09/21 10:49:26;;;;;;;0.20;0.20;;;;;;;10.78;50.16;99078.88;5111212;28;20054;-66
2021/09/21 10:51:54;;;;;;;0.30;0.30;;;;;;;10.78;50.20;99078.88;5110937;28;20031;-66
2021/09/21 10:54:35;;;;;;;0.25;0.25;;;;;;;10.83;50.44;99073.53;5112142;28;20031;-66
2021/09/21 10:57:10;;;;;;;0.20;0.20;;;;;;;10.82;50.38;99080.94;5109332;28;20084;-64
2021/09/21 10:59:37;;;;;;;0.28;0.28;;;;;;;10.86;50.07;99084.06;5110913;28;20088;-65
2021/09/21 11:02:10;;;;;;;0.10;0.10;;;;;;;10.90;49.88;99071.53;5111820;28;20038;-65
2021/09/21 11:04:43;;;;;;;0.22;0.22;;;;;;;10.93;49.97;99068.34;5109791;28;20028;-65
2021/09/21 11:07:11;;;;;;;1.75;0.50;;;;;;;10.96;49.76;99073.38;5111407;28;20038;-66
2021/09/21 11:09:37;;;;;;;2.30;1.10;;;;;;;10.97;50.04;99071.47;5111239;28;20066;-65
2021/09/21 11:12:09;;;;;;;0.20;0.20;;;;;;;10.96;50.08;99059.63;5111052;28;20059;-65
2021/09/21 11:14:43;;;;;;;0.22;0.22;;;;;;;10.98;50.04;99056.66;5109291;28;20020;-66
2021/09/21 11:17:10;;;;;;;0.30;0.30;;;;;;;10.95;50.03;99051.63;5111305;28;20032;-65
2021/09/21 11:19:38;;;;;;;2.22;0.50;;;;;;;10.95;50.16;99052.44;5111481;28;20040;-65
2021/09/21 11:22:07;;;;;;;0.20;0.20;;;;;;;10.96;50.13;99043.13;5110902;28;20031;-65
2021/09/21 11:24:34;;;;;;;0.35;0.35;;;;;;;10.98;50.13;99046.50;5108946;28;20039;-65
2021/09/21 11:27:03;;;;;;;0.82;0.73;;;;;;;11.02;49.99;99050.44;5110814;28;20081;-65
2021/09/21 11:29:31;;;;;;;0.20;0.20;;;;;;;11.05;49.74;99040.91;5110949;27;20040;-65
2021/09/21 11:31:57;;;;;;;0.28;0.28;;;;;;;11.06;50.12;99048.09;5110683;28;20027;-65
2021/09/21 11:34:29;;;;;;;0.22;0.22;;;;;;;11.04;49.79;99041.97;5106627;28;20068;-65
2021/09/21 11:37:02;;;;;;;0.20;0.20;;;;;;;11.03;49.82;99043.06;5110754;28;20383;-65
2021/09/21 11:39:31;;;;;;;1.48;1.38;;;;;;;11.03;49.97;99032.91;5110603;28;20055;-65
2021/09/21 11:41:57;;;;;;;0.20;0.20;;;;;;;11.04;50.01;99045.56;5110871;28;20078;-65
2021/09/21 11:44:22;;;;;;;0.30;0.30;;;;;;;11.05;49.88;99044.47;5111079;28;20077;-65
2021/09/21 11:46:58;;;;;;;0.88;0.57;;;;;;;11.07;49.96;99036.03;5110074;28;20432;-65
2021/09/21 11:49:25;;;;;;;0.17;0.17;;;;;;;11.06;50.00;99026.09;5110677;28;20131;-65
2021/09/21 11:51:52;;;;;;;0.20;0.20;;;;;;;11.09;49.83;99031.13;5110472;28;20035;-65
2021/09/21 11:54:20;;;;;;;0.20;0.20;;;;;;;11.11;49.58;99028.16;5110834;28;20076;-66
2021/09/21 11:56:46;;;;;;;0.20;0.20;;;;;;;11.13;49.46;99024.09;5110365;28;20447;-66
2021/09/21 11:59:17;;;;;;;0.30;0.30;;;;;;;11.14;49.77;99024.94;5110174;27;20035;-66
2021/09/21 12:01:51;;;;;;;0.10;0.10;;;;;;;11.14;49.47;99023.00;5110294;28;20031;-65
2021/09/21 12:04:18;;;;;;;;;;;;;;;11.14;49.62;99006.53;5107906;28;20027;-65
2021/09/21 12:06:44;;;;;;;0.20;0.20;;;;;;;11.14;49.87;99012.03;5110446;28;20369;-65
2021/09/21 12:09:11;;;;;;;0.55;0.50;;;;;;;11.16;49.73;99014.53;5110603;28;20031;-66
2021/09/21 12:11:43;;;;;;;0.20;0.20;;;;;;;11.15;49.51;99002.72;5110353;28;20035;-66
2021/09/21 12:14:08;;;;;;;0.25;0.25;;;;;;;11.14;49.51;99014.78;5108823;28;20396;-65
2021/09/21 12:16:34;;;;;;;0.17;0.17;;;;;;;11.13;49.63;99004.88;5109831;28;20027;-64
2021/09/21 12:19:00;;;;;;;0.20;0.20;;;;;;;11.12;49.58;98997.69;5110681;28;20035;-66
2021/09/21 12:21:29;;;;;;;0.40;0.40;;;;;;;11.12;49.48;98988.63;5109139;28;20032;-64
2021/09/21 12:23:55;;;;;;;0.20;0.20;;;;;;;11.11;49.75;99003.44;5109865;28;20046;-65
2021/09/21 12:26:22;;;;;;;0.95;0.50;;;;;;;11.10;49.44;98983.34;5110004;28;20826;-67
2021/09/21 12:28:51;;;;;;;0.40;0.40;;;;;;;11.08;49.36;98993.72;5109512;28;20036;-66
2021/09/21 12:31:21;;;;;;;0.38;0.38;;;;;;;11.08;49.39;98985.47;5109619;28;20088;-67
2021/09/21 12:33:48;;;;;;;0.20;0.20;;;;;;;11.08;49.37;98987.41;5108815;28;20024;-66
2021/09/21 12:36:26;;;;;;;0.20;0.20;;;;;;;11.07;49.72;98966.50;5109605;28;20051;-65
2021/09/21 12:39:08;;;;;;;0.20;0.20;;;;;;;11.08;49.74;98970.91;5107794;28;20048;-64
2021/09/21 12:41:48;;;;;;;0.20;0.20;;;;;;;11.07;49.55;98969.22;5106375;28;20393;-65
2021/09/21 12:44:19;;;;;;;0.30;0.30;;;;;;;10.99;49.52;98965.75;5104092;28;20032;-65
2021/09/21 12:46:48;;;;;;;0.40;0.40;;;;;;;10.91;49.86;98957.00;5108614;28;20031;-66
2021/09/21 12:49:16;;;;;;;0.20;0.20;;;;;;;10.84;50.07;98962.59;5109923;28;20028;-64
2021/09/21 12:52:03;;;;;;;0.20;0.20;;;;;;;10.81;50.09;98963.91;5108222;28;20398;-64
2021/09/21 12:54:29;;;;;;;0.30;0.30;;;;;;;10.76;49.78;98958.28;5106301;28;20085;-67
2021/09/21 12:56:58;;;;;;;0.20;0.20;;;;;;;10.75;49.84;98945.59;5110057;28;20031;-67
2021/09/21 12:59:26;;;;;;;0.25;0.25;;;;;;;10.77;50.19;98950.88;5109617;28;20049;-66
2021/09/21 13:01:55;;;;;;;0.30;0.30;;;;;;;10.75;50.14;98951.09;5110249;28;20036;-65
2021/09/21 13:04:21;;;;;;;0.68;0.68;;;;;;;10.75;50.04;98953.84;5110139;28;20031;-66
2021/09/21 13:06:48;;;;;;;0.35;0.35;;;;;;;10.73;49.98;98946.91;5107482;28;20027;-68
2021/09/21 13:09:15;;;;;;;0.20;0.20;;;;;;;10.69;49.88;98943.78;5108182;28;20027;-67
2021/09/21 13:11:42;;;;;;;0.17;0.17;;;;;;;10.64;50.15;98951.88;5108266;28;20036;-68
2021/09/21 13:14:08;;;;;;;0.30;0.30;;;;;;;10.58;50.38;98952.81;5107102;28;20447;-67
2021/09/21 13:16:36;;;;;;;0.30;0.30;;;;;;;10.52;50.30;98949.91;5107661;28;20036;-67
2021/09/21 13:19:02;;;;;;;0.40;0.40;;;;;;;10.44;50.41;98944.75;5108446;28;20043;-67
2021/09/21 13:21:28;;;;;;;0.70;0.65;;;;;;;10.39;50.62;98950.06;5108376;28;20035;-67